Aviation Digital Data Service (ADDS)

Output produced by METARs form (0147 UTC 16 January 2019)
found at http://www.aviationweather.gov/metar/data/
 
WSAP 160100Z 36007KT 9999 FEW018 BKN300 28/23 Q1011
TAF WSAP 152300Z 1600/1706 34007KT 9999 FEW015 SCT020 
     TEMPO 1606/1610 3000 TSRA FEW012CB BKN015
       
WSSL 160100Z 33006KT 290V020 9999 FEW022 BKN300 28/23 Q1011
TAF WSSL 152300Z 1600/1706 34007KT 9999 FEW015 SCT020 
     TEMPO 1606/1610 3000 TSRA FEW012CB BKN015
       
WSSS 160130Z 35005KT 260V030 9999 FEW018 BKN300 29/23 Q1011 NOSIG
TAF WSSS 152300Z 1600/1706 34007KT 9999 FEW015 SCT020 
     TEMPO 1606/1610 3000 TSRA FEW012CB BKN015